Almería, España

5:39 AM CEST en Julio 25, 2014 (GMT +0200)
Huercal de Almeria, Villa Ines (IANDALUC59) Alt 187 ft | 36.87 °N, 2.44 °W | Change Station

Current weather conditions updated 9 minutes ago

Scattered Clouds
Nubes dispersas
76.2 ° F
Sensación térmica 78 ° F
N
3.0
Viento Variable Viento desde SO
Gusts 3.0 mph

Hoy se prevé un día Mucho más frío que ayer.

Hoy
Alta -- | Baja -- ° F
--% Posibilidad de precipitaciones
Ayer
Alta -- | Baja -- ° F
Precip. -- pul
7:09 AM 9:22 PM
Creciente menguante, 3% visible
Presión 29.80 pul
Visibilidad 6.2 Millas
Nubes Nubes dispersas 1000 ft
Índice de calor 78 ° F
Punto de rocío 67 ° F
Humedad 74%
Precipitaciones 0.00 pul
Espesor de la nieve No disponible.
UV 0.0 de una escala de 12
Polen No disponible.
Calidad del aire No disponible.
Flu Activity No disponible.
METAR LEAM 250330Z 00000KT 9999 SCT010 24/21 Q1009

More Conditions Fewer Conditions

Presión 29.80 pul
Visibilidad 6.2 Millas
Nubes Nubes dispersas 1000 ft
Índice de calor 78 ° F
Punto de rocío 67 ° F
Humedad 74%
Precipitaciones 0.00 pul
Espesor de la nieve No disponible.
UV 0.0 de una escala de 12
Polen No disponible.
Calidad del aire No disponible.
Flu Activity No disponible.
METAR LEAM 250330Z 00000KT 9999 SCT010 24/21 Q1009

More Conditions Fewer Conditions

10-Day Weather Forecast

Almanac

Astronomía

Jul. 25, 2014 Salida Puesta
Hora real 7:09 AM CEST 9:22 PM CEST
Crepúsculo civil 6:40 AM CEST 9:51 PM CEST
Crepúsculo náutico 6:04 AM CEST 10:27 PM CEST
Crepúsculo astronómico 5:25 AM CEST 11:05 PM CEST
Luna 5:55 AM CEST 8:10 PM CEST
Horas de luz 15h 11m
Horas de luz
14h 13m
Tomorrow will be 1m 34s shorter.
Creciente menguante, 3% of the Moon is Illuminated
Jul 24
Creciente menguante
Jul 26
Nueva
Ago 3
Cuarto creciente
Ago 10
Luna llena
Ago 17
Cuarto menguante

Extremos de ayer

Máximos del país Bajas del país

Community

WunderPhotos

Upload Photos

1,737,228 ¡fotos cargadas!

Nearby

Calidad del aire

Not available.

Grosos de nieve

Not available.

Actividad de terremotos

Ciudad Distance Mag. Tiempo y dato
No hay informes recientes de la actividad sísmica.
Magnitud mínima muestra es 2,5.

Temperaturas de aguas costeras

Lugar Temperatura
Sin partes meteorológicos de las estaciones

Estaciones meteorológicas cercanas

Ubicación de la estación Temp. Índice de calor Punto de rocío Humedad Viento Precip. Alt Actualizado Tipo
Huercal de Almeria, Villa Ines, Huércal De Almería 76.2 ° F 78 ° F 67 ° F 74% SO  a  3.0 mph 0.00 pul / hr 187 ft 5:30 AM CEST Normal
Aguadulce, Roquetas de Mar 75.3 ° F 76 ° F 69 ° F 82% SE  a  0.0 mph 0.00 pul / hr 90 ft 5:30 AM CEST Normal
El Rio de Aguas, Sorbas 73.4 ° F 75 ° F 63 ° F 70% Sur  a  4.0 mph 0.00 pul / hr 984 ft 5:25 AM CEST Normal

Show More Stations Show Fewer Stations